Time;durP1;ratioP1;P1;durP2;ratioP2;P2;SDS_P1;SDS_P2;PMS_P1;PMS_P2;Temp;Humidity;BMP_temperature;BMP_pressure;BME280_temperature;BME280_humidity;BME280_pressure;Samples;Min_cycle;Max_cycle;Signal;HPM_P1;HPM_P2
2024/02/06 00:01:35;;;;;;;4.82;2.38;;;11.50;1.00;;;;;;5024993;28;20048;-78
2024/02/06 00:04:02;;;;;;;5.43;1.48;;;11.50;1.00;;;;;;5022767;28;20110;-78
2024/02/06 00:06:29;;;;;;;4.68;2.20;;;11.50;1.00;;;;;;5042799;28;20052;-78
2024/02/06 00:08:56;;;;;;;2.45;1.10;;;11.50;1.00;;;;;;5043425;28;20099;-77
2024/02/06 00:11:23;;;;;;;3.03;1.45;;;11.50;3.40;;;;;;5026235;28;20064;-78
2024/02/06 00:13:50;;;;;;;3.50;1.48;;;11.50;1.00;;;;;;5043475;28;20076;-78
2024/02/06 00:16:17;;;;;;;2.85;1.25;;;11.50;3.20;;;;;;5027222;28;20454;-78
2024/02/06 00:18:44;;;;;;;2.05;1.10;;;11.50;1.00;;;;;;5026081;28;20060;-77
2024/02/06 00:21:11;;;;;;;3.78;1.63;;;11.50;14.20;;;;;;5043906;28;20057;-77
2024/02/06 00:23:37;;;;;;;4.00;1.23;;;11.50;1.00;;;;;;5005642;28;20057;-78
2024/02/06 00:26:04;;;;;;;2.60;1.20;;;11.50;7.40;;;;;;5038440;28;20518;-78
2024/02/06 00:28:31;;;;;;;3.47;1.70;;;11.50;2.60;;;;;;5023231;28;20118;-78
2024/02/06 00:30:58;;;;;;;4.15;1.70;;;11.50;6.30;;;;;;5043479;28;20053;-78
2024/02/06 00:33:25;;;;;;;4.45;1.90;;;11.50;5.90;;;;;;5025081;28;20053;-78
2024/02/06 00:35:52;;;;;;;5.10;1.77;;;11.60;4.50;;;;;;5009047;28;20424;-79
2024/02/06 00:38:19;;;;;;;5.28;1.45;;;11.50;10.50;;;;;;5023994;28;20057;-78
2024/02/06 00:40:46;;;;;;;4.20;1.45;;;11.60;14.30;;;;;;5008205;28;20494;-78
2024/02/06 00:43:13;;;;;;;4.80;2.42;;;11.60;5.70;;;;;;5024913;28;20517;-78
2024/02/06 00:45:39;;;;;;;4.10;1.65;;;11.50;15.20;;;;;;5043418;28;20461;-79
2024/02/06 00:48:07;;;;;;;4.82;1.88;;;11.50;19.80;;;;;;5043785;28;20165;-79
2024/02/06 00:50:34;;;;;;;3.83;2.03;;;11.50;22.80;;;;;;5026050;28;20045;-78
2024/02/06 00:53:01;;;;;;;4.15;1.42;;;11.50;24.60;;;;;;5024387;28;20652;-79
2024/02/06 00:55:28;;;;;;;4.70;1.80;;;11.50;27.50;;;;;;5025186;28;20049;-78
2024/02/06 00:57:55;;;;;;;3.20;1.40;;;11.60;29.80;;;;;;5025758;28;20144;-78
2024/02/06 01:00:21;;;;;;;3.63;1.20;;;11.60;28.50;;;;;;5026413;28;20053;-79
2024/02/06 01:02:48;;;;;;;4.78;1.40;;;11.60;29.40;;;;;;5007195;28;20512;-78
2024/02/06 01:05:15;;;;;;;3.55;1.00;;;11.60;29.40;;;;;;5040766;28;20045;-79
2024/02/06 01:07:42;;;;;;;3.00;1.23;;;11.70;31.50;;;;;;5024635;28;20053;-78
2024/02/06 01:10:09;;;;;;;3.60;1.30;;;11.70;33.60;;;;;;5043025;28;20060;-79
2024/02/06 01:12:36;;;;;;;4.30;1.50;;;11.70;34.10;;;;;;5043322;28;20084;-78
2024/02/06 01:15:04;;;;;;;3.97;1.20;;;11.70;34.60;;;;;;4994807;28;20507;-78
2024/02/06 01:17:30;;;;;;;7.35;1.67;;;11.60;34.90;;;;;;5029935;28;20475;-78
2024/02/06 01:19:57;;;;;;;5.47;2.35;;;11.60;38.60;;;;;;5047668;28;20045;-78
2024/02/06 01:22:24;;;;;;;5.03;1.75;;;11.60;39.60;;;;;;5029023;28;20167;-78
2024/02/06 01:24:51;;;;;;;3.65;1.40;;;11.60;40.20;;;;;;5045790;28;20053;-78
2024/02/06 01:27:19;;;;;;;4.15;1.40;;;11.60;39.10;;;;;;5029647;28;20119;-78
2024/02/06 01:29:47;;;;;;;2.80;1.38;;;11.60;33.40;;;;;;5047337;28;20478;-78
2024/02/06 01:32:14;;;;;;;6.20;1.60;;;11.70;33.50;;;;;;5013374;28;20045;-78
2024/02/06 01:34:41;;;;;;;4.93;1.27;;;11.70;31.70;;;;;;5046833;28;20425;-78
2024/02/06 01:37:08;;;;;;;3.53;1.50;;;11.70;31.20;;;;;;5046953;28;20049;-79
2024/02/06 01:39:37;;;;;;;4.95;1.52;;;11.70;33.80;;;;;;5046070;28;20130;-78
2024/02/06 01:42:05;;;;;;;6.80;1.70;;;11.70;39.10;;;;;;5012919;28;20073;-79
2024/02/06 01:44:33;;;;;;;3.80;1.48;;;11.70;37.70;;;;;;5012953;28;20487;-78
2024/02/06 01:46:59;;;;;;;2.28;1.20;;;11.80;46.90;;;;;;5047038;28;20057;-79
2024/02/06 01:49:26;;;;;;;2.97;1.27;;;11.80;55.50;;;;;;5028890;28;20044;-78
2024/02/06 01:51:53;;;;;;;3.45;1.63;;;11.80;42.10;;;;;;5046695;28;20111;-79
2024/02/06 01:54:20;;;;;;;3.50;1.40;;;11.80;36.10;;;;;;5045575;28;20048;-78
2024/02/06 01:56:47;;;;;;;2.58;1.50;;;11.90;32.00;;;;;;5012838;28;20104;-78
2024/02/06 01:59:14;;;;;;;5.45;1.38;;;11.90;34.70;;;;;;5029010;28;20649;-78
2024/02/06 02:01:41;;;;;;;3.17;1.50;;;11.90;33.00;;;;;;5029148;28;20045;-78
2024/02/06 02:04:09;;;;;;;3.60;1.33;;;12.00;42.60;;;;;;5012688;28;20095;-78
2024/02/06 02:06:37;;;;;;;4.57;1.52;;;12.00;36.60;;;;;;5012375;28;20114;-79
2024/02/06 02:09:05;;;;;;;2.60;1.35;;;12.00;23.40;;;;;;5027888;28;20872;-79
2024/02/06 02:11:35;;;;;;;2.90;1.45;;;12.00;21.20;;;;;;5013160;28;20135;-78
2024/02/06 02:14:02;;;;;;;4.18;1.20;;;12.00;20.70;;;;;;5028282;28;20118;-78
2024/02/06 02:16:29;;;;;;;3.38;1.50;;;12.00;37.90;;;;;;5046836;28;20399;-78
2024/02/06 02:18:56;;;;;;;2.50;1.20;;;12.00;16.10;;;;;;5046559;28;20079;-78
2024/02/06 02:21:23;;;;;;;2.70;1.00;;;12.10;25.90;;;;;;5028210;28;20072;-78
2024/02/06 02:23:49;;;;;;;7.43;1.95;;;12.10;24.70;;;;;;5044684;28;20494;-78
2024/02/06 02:26:19;;;;;;;2.83;1.25;;;12.10;27.50;;;;;;5027435;28;20052;-78
2024/02/06 02:28:45;;;;;;;3.67;1.42;;;12.10;20.60;;;;;;5046128;28;20084;-78
2024/02/06 02:31:12;;;;;;;2.20;1.23;;;12.10;28.60;;;;;;5012809;28;20041;-78
2024/02/06 02:33:39;;;;;;;1.20;1.00;;;12.10;26.80;;;;;;5011411;28;20060;-78
2024/02/06 02:36:07;;;;;;;4.45;1.77;;;12.10;32.80;;;;;;5046477;28;20056;-78
2024/02/06 02:38:35;;;;;;;4.35;1.33;;;12.10;21.40;;;;;;5046987;28;20072;-78
2024/02/06 02:41:02;;;;;;;5.15;1.45;;;12.10;24.00;;;;;;5015376;28;20064;-78
2024/02/06 02:43:29;;;;;;;2.90;1.25;;;12.10;30.70;;;;;;5031381;28;20056;-78
2024/02/06 02:45:58;;;;;;;4.35;1.55;;;12.10;24.60;;;;;;5048293;28;20052;-77
2024/02/06 02:48:25;;;;;;;4.47;1.30;;;12.10;25.70;;;;;;5048328;28;20064;-78
2024/02/06 02:50:52;;;;;;;7.50;1.88;;;12.10;24.20;;;;;;5048043;28;20065;-78
2024/02/06 02:53:19;;;;;;;5.85;1.77;;;12.10;9.90;;;;;;5044763;28;20079;-78
2024/02/06 02:55:46;;;;;;;5.30;1.27;;;12.10;15.60;;;;;;5029597;28;20583;-78
2024/02/06 02:58:13;;;;;;;3.50;1.33;;;12.10;23.20;;;;;;5013431;28;20063;-78
2024/02/06 03:00:40;;;;;;;3.50;1.20;;;12.10;22.60;;;;;;5014069;28;20045;-79
2024/02/06 03:03:07;;;;;;;5.88;1.58;;;12.10;23.50;;;;;;5047452;28;20135;-78
2024/02/06 03:05:34;;;;;;;3.55;1.63;;;12.00;20.00;;;;;;5029905;28;20557;-78
2024/02/06 03:08:02;;;;;;;5.40;2.08;;;12.00;26.90;;;;;;5011808;28;20052;-78
2024/02/06 03:10:29;;;;;;;4.13;1.83;;;12.00;30.00;;;;;;5046791;28;20072;-78
2024/02/06 03:12:55;;;;;;;4.30;1.83;;;12.00;33.40;;;;;;5029454;28;20052;-78
2024/02/06 03:15:22;;;;;;;4.28;1.40;;;11.90;34.40;;;;;;5047804;28;20048;-78
2024/02/06 03:17:51;;;;;;;4.70;1.83;;;11.90;20.80;;;;;;5029211;28;20542;-77
2024/02/06 03:20:19;;;;;;;6.70;1.88;;;12.00;34.50;;;;;;5047198;28;20478;-78
2024/02/06 03:22:47;;;;;;;5.57;2.33;;;12.00;24.30;;;;;;5046297;28;20056;-77
2024/02/06 03:25:14;;;;;;;5.18;2.03;;;12.00;25.60;;;;;;5029164;28;20045;-77
2024/02/06 03:27:43;;;;;;;3.45;1.20;;;12.00;25.10;;;;;;5047152;28;20073;-78
2024/02/06 03:30:11;;;;;;;2.78;1.48;;;12.00;22.40;;;;;;5029646;28;20606;-78
2024/02/06 03:32:37;;;;;;;5.97;2.10;;;12.00;23.30;;;;;;5047060;28;20490;-78
2024/02/06 03:35:07;;;;;;;5.75;2.05;;;12.00;23.20;;;;;;5046918;28;20140;-77
2024/02/06 03:37:34;;;;;;;6.32;2.38;;;12.00;24.40;;;;;;5046074;28;20461;-77
2024/02/06 03:40:01;;;;;;;6.63;1.70;;;12.00;23.40;;;;;;5024728;28;20045;-79
2024/02/06 03:42:28;;;;;;;6.47;2.30;;;12.00;34.50;;;;;;4996608;28;20057;-79
2024/02/06 03:44:55;;;;;;;7.28;2.00;;;12.00;28.90;;;;;;5024337;28;20128;-79
2024/02/06 03:47:21;;;;;;;7.10;2.65;;;12.00;18.40;;;;;;5045392;28;20145;-79
2024/02/06 03:49:48;;;;;;;8.43;2.20;;;12.00;27.00;;;;;;5027424;28;20090;-78
2024/02/06 03:52:15;;;;;;;4.05;1.50;;;12.00;36.30;;;;;;5044946;28;20575;-78
2024/02/06 03:54:42;;;;;;;4.15;2.00;;;12.00;34.80;;;;;;5044112;28;20077;-79
2024/02/06 03:57:10;;;;;;;8.30;2.50;;;12.00;22.50;;;;;;5027441;28;20061;-78
2024/02/06 03:59:37;;;;;;;4.97;2.13;;;12.00;29.50;;;;;;5029101;28;20128;-79
2024/02/06 04:02:03;;;;;;;4.65;1.88;;;12.00;24.60;;;;;;5046844;28;20059;-79
2024/02/06 04:04:31;;;;;;;6.10;1.60;;;12.00;20.40;;;;;;5046562;28;20053;-79
2024/02/06 04:06:58;;;;;;;4.47;1.60;;;12.00;21.00;;;;;;5046072;28;20603;-76
2024/02/06 04:09:25;;;;;;;4.07;1.73;;;12.00;16.80;;;;;;5027605;28;20052;-79
2024/02/06 04:11:51;;;;;;;4.68;1.83;;;11.90;25.00;;;;;;5028744;28;20064;-79
2024/02/06 04:14:18;;;;;;;5.72;1.90;;;11.90;16.70;;;;;;5028714;28;20149;-79
2024/02/06 04:16:46;;;;;;;7.00;1.52;;;11.90;17.60;;;;;;5046712;28;20454;-79
2024/02/06 04:19:13;;;;;;;4.47;1.92;;;11.90;26.00;;;;;;5029221;28;20049;-79
2024/02/06 04:21:40;;;;;;;4.72;1.60;;;12.00;11.40;;;;;;5045661;28;20146;-79
2024/02/06 04:24:08;;;;;;;5.68;1.98;;;12.00;20.20;;;;;;5045152;28;20045;-79
2024/02/06 04:26:35;;;;;;;7.32;2.67;;;12.00;17.10;;;;;;5028967;28;20496;-77
2024/02/06 04:29:02;;;;;;;7.28;1.90;;;12.00;20.00;;;;;;5029005;28;20059;-78
2024/02/06 04:31:30;;;;;;;9.63;2.20;;;12.00;21.70;;;;;;5013268;28;20044;-78
2024/02/06 04:33:57;;;;;;;5.97;2.17;;;12.00;21.90;;;;;;5030038;28;20127;-79
2024/02/06 04:36:24;;;;;;;4.65;2.13;;;12.00;18.20;;;;;;5049170;28;20056;-79
2024/02/06 04:38:51;;;;;;;4.68;1.65;;;12.00;19.90;;;;;;5045562;28;20056;-78
2024/02/06 04:41:17;;;;;;;5.10;1.90;;;12.10;21.20;;;;;;5046252;28;20049;-79
2024/02/06 04:43:44;;;;;;;5.10;1.85;;;12.10;19.60;;;;;;5046103;28;20081;-78
2024/02/06 04:46:11;;;;;;;3.85;1.50;;;12.10;20.80;;;;;;5046264;28;20048;-78
2024/02/06 04:48:39;;;;;;;5.93;1.95;;;12.10;19.90;;;;;;5047292;28;20103;-77
2024/02/06 04:51:06;;;;;;;6.80;2.33;;;12.10;18.80;;;;;;5020775;28;20050;-78
2024/02/06 04:53:34;;;;;;;5.50;1.92;;;12.20;17.80;;;;;;5033770;28;20052;-78
2024/02/06 04:56:01;;;;;;;6.03;1.80;;;12.20;15.40;;;;;;5032377;28;20045;-77
2024/02/06 04:58:27;;;;;;;6.47;1.88;;;12.20;15.20;;;;;;5050188;28;20056;-78
2024/02/06 05:00:54;;;;;;;4.25;2.08;;;12.20;14.90;;;;;;5050558;28;20469;-78
2024/02/06 05:03:21;;;;;;;4.32;1.80;;;12.30;15.20;;;;;;5049797;28;20051;-78
2024/02/06 05:05:48;;;;;;;4.60;2.15;;;12.30;11.70;;;;;;5050534;28;20501;-78
2024/02/06 05:08:15;;;;;;;4.80;1.70;;;12.30;16.90;;;;;;5049069;28;20114;-77
2024/02/06 05:10:41;;;;;;;6.25;2.13;;;12.30;12.60;;;;;;5050232;28;20053;-78
2024/02/06 05:13:09;;;;;;;5.10;1.80;;;12.30;13.90;;;;;;5015642;28;20052;-77
2024/02/06 05:15:36;;;;;;;5.38;1.73;;;12.30;13.40;;;;;;5049918;28;20128;-77
2024/02/06 05:18:03;;;;;;;5.20;2.05;;;12.30;17.80;;;;;;5049962;28;20487;-78
2024/02/06 05:20:30;;;;;;;6.78;2.15;;;12.30;12.80;;;;;;5050118;28;20052;-78
2024/02/06 05:22:57;;;;;;;7.63;3.42;;;12.30;15.60;;;;;;5030690;28;20049;-78
2024/02/06 05:25:24;;;;;;;5.97;2.17;;;12.20;16.50;;;;;;5031868;28;20102;-77
2024/02/06 05:27:51;;;;;;;4.95;1.48;;;12.20;17.10;;;;;;5050056;28;20049;-77
2024/02/06 05:30:18;;;;;;;4.07;1.60;;;12.20;16.20;;;;;;5015908;28;20080;-77
2024/02/06 05:32:45;;;;;;;5.63;2.30;;;12.10;9.50;;;;;;5032499;28;20084;-77
2024/02/06 05:35:12;;;;;;;7.32;1.98;;;12.10;11.40;;;;;;5049767;28;20125;-78
2024/02/06 05:37:39;;;;;;;7.72;2.10;;;12.00;12.00;;;;;;5049574;28;20044;-78
2024/02/06 05:40:07;;;;;;;2.55;1.55;;;12.00;15.20;;;;;;5030704;28;20080;-78
2024/02/06 05:42:34;;;;;;;4.18;1.88;;;12.00;13.40;;;;;;5031771;28;20052;-77
2024/02/06 05:45:01;;;;;;;5.53;1.67;;;12.00;21.60;;;;;;5028698;28;20052;-78
2024/02/06 05:47:27;;;;;;;6.70;1.85;;;12.00;20.80;;;;;;5029628;28;20089;-77
2024/02/06 05:49:54;;;;;;;5.18;1.80;;;12.00;22.90;;;;;;5022413;28;20065;-78
2024/02/06 05:52:21;;;;;;;6.50;2.25;;;12.10;16.40;;;;;;5018067;28;20049;-77
2024/02/06 05:54:48;;;;;;;4.68;1.88;;;12.10;16.40;;;;;;5010148;28;20049;-77
2024/02/06 05:57:15;;;;;;;2.42;1.42;;;12.20;20.30;;;;;;5045809;28;20076;-77
2024/02/06 05:59:42;;;;;;;2.47;1.13;;;12.20;15.10;;;;;;5028040;28;20506;-78
2024/02/06 06:02:09;;;;;;;4.88;1.50;;;12.20;19.90;;;;;;5026165;28;20064;-78
2024/02/06 06:04:36;;;;;;;2.45;1.20;;;12.20;24.40;;;;;;5008370;28;20060;-77
2024/02/06 06:07:04;;;;;;;7.13;1.92;;;12.20;17.80;;;;;;5025436;28;20041;-78
2024/02/06 06:09:31;;;;;;;3.33;1.30;;;12.20;24.00;;;;;;5026529;28;20127;-77
2024/02/06 06:11:57;;;;;;;3.85;1.35;;;12.20;23.80;;;;;;5045415;28;20045;-78
2024/02/06 06:14:24;;;;;;;4.25;1.58;;;12.20;29.40;;;;;;5045000;28;20107;-78
2024/02/06 06:16:51;;;;;;;4.43;1.48;;;12.20;25.40;;;;;;5045555;28;20072;-79
2024/02/06 06:19:18;;;;;;;2.67;1.45;;;12.20;29.30;;;;;;5042878;28;20053;-78
2024/02/06 06:21:45;;;;;;;1.88;1.08;;;12.20;41.50;;;;;;5028202;28;20037;-79
2024/02/06 06:24:12;;;;;;;2.75;1.17;;;12.10;45.40;;;;;;5038436;28;20132;-79
2024/02/06 06:26:41;;;;;;;3.42;1.48;;;12.20;35.50;;;;;;5016732;28;20072;-79
2024/02/06 06:29:08;;;;;;;2.03;0.90;;;12.20;47.90;;;;;;5042995;28;20049;-79
2024/02/06 06:31:35;;;;;;;5.38;1.35;;;12.20;46.70;;;;;;5039929;28;20142;-79
2024/02/06 06:34:04;;;;;;;4.55;1.08;;;12.20;46.60;;;;;;5024136;28;20806;-79
2024/02/06 06:36:31;;;;;;;3.30;1.20;;;12.20;44.70;;;;;;5011351;28;20045;-79
2024/02/06 06:38:58;;;;;;;2.58;1.13;;;12.30;45.00;;;;;;5028154;28;20434;-80
2024/02/06 06:41:25;;;;;;;2.15;1.10;;;12.30;45.10;;;;;;5027190;28;20114;-80
2024/02/06 06:43:52;;;;;;;4.10;2.17;;;12.30;43.00;;;;;;5027541;28;20053;-79
2024/02/06 06:46:19;;;;;;;2.50;1.38;;;12.30;47.50;;;;;;5010878;28;20525;-78
2024/02/06 06:48:46;;;;;;;2.67;1.13;;;12.30;56.30;;;;;;5007658;28;20428;-78
2024/02/06 06:51:13;;;;;;;3.60;1.33;;;12.30;51.00;;;;;;5044450;28;20049;-79
2024/02/06 06:53:41;;;;;;;3.58;1.48;;;12.30;47.50;;;;;;5043550;28;20108;-80
2024/02/06 06:56:18;;;;;;;3.10;1.10;;;12.30;44.20;;;;;;5043837;28;20041;-80
2024/02/06 06:58:45;;;;;;;4.68;1.15;;;12.30;42.10;;;;;;5043676;28;20971;-79
2024/02/06 07:01:12;;;;;;;5.13;1.80;;;12.30;41.90;;;;;;5028184;28;20132;-79
2024/02/06 07:03:39;;;;;;;7.00;2.28;;;12.30;43.90;;;;;;5011092;28;20140;-79
2024/02/06 07:06:07;;;;;;;7.05;1.70;;;12.30;46.40;;;;;;5027086;28;20499;-80
2024/02/06 07:08:34;;;;;;;5.35;1.70;;;12.30;43.10;;;;;;5027239;28;20061;-79
2024/02/06 07:11:02;;;;;;;8.73;2.30;;;12.30;45.60;;;;;;5044968;28;20566;-79
2024/02/06 07:13:29;;;;;;;6.38;2.53;;;12.30;44.50;;;;;;5026295;28;20495;-80
2024/02/06 07:15:56;;;;;;;4.05;1.60;;;12.40;42.10;;;;;;4995582;28;20057;-81
2024/02/06 07:18:23;;;;;;;3.20;1.50;;;12.40;41.50;;;;;;5024705;28;20049;-78
2024/02/06 07:20:50;;;;;;;5.30;1.65;;;12.40;34.70;;;;;;5023980;28;20052;-76
2024/02/06 07:23:17;;;;;;;5.55;1.95;;;12.40;31.70;;;;;;5040109;28;20044;-78
2024/02/06 07:25:44;;;;;;;3.28;1.70;;;12.40;28.70;;;;;;5041770;28;20049;-76
2024/02/06 07:28:11;;;;;;;3.15;1.67;;;12.50;29.00;;;;;;5044377;28;20454;-77
2024/02/06 07:30:39;;;;;;;3.53;1.60;;;12.50;29.70;;;;;;5045054;28;20056;-77
2024/02/06 07:33:07;;;;;;;8.43;2.47;;;12.50;25.70;;;;;;5041175;28;20053;-77
2024/02/06 07:35:34;;;;;;;4.45;1.73;;;12.40;18.40;;;;;;5041704;28;20140;-77
2024/02/06 07:38:01;;;;;;;4.43;1.80;;;12.40;21.00;;;;;;5041020;28;20049;-77
2024/02/06 07:40:34;;;;;;;3.05;1.38;;;12.40;21.40;;;;;;5024500;28;20080;-77
2024/02/06 07:43:01;;;;;;;4.82;1.40;;;12.30;21.80;;;;;;5026921;28;20103;-77
2024/02/06 07:45:28;;;;;;;4.50;1.80;;;12.30;23.40;;;;;;5043274;28;20088;-78
2024/02/06 07:47:54;;;;;;;4.00;1.63;;;12.30;24.60;;;;;;5023475;28;20104;-77
2024/02/06 07:50:21;;;;;;;4.88;2.17;;;12.30;32.60;;;;;;5022962;28;20044;-78
2024/02/06 07:52:48;;;;;;;3.42;1.30;;;12.40;22.30;;;;;;5043260;28;20045;-77
2024/02/06 07:55:15;;;;;;;2.47;1.00;;;12.40;22.00;;;;;;5023754;28;20045;-78
2024/02/06 07:57:43;;;;;;;4.78;1.65;;;12.40;12.40;;;;;;5034468;28;20049;-77
2024/02/06 08:00:10;;;;;;;3.47;1.50;;;12.50;12.40;;;;;;4994089;28;20056;-77
2024/02/06 08:02:37;;;;;;;2.45;1.27;;;12.50;15.60;;;;;;5026876;28;20144;-77
2024/02/06 08:05:06;;;;;;;2.47;1.05;;;12.60;12.60;;;;;;5044197;28;20045;-77
2024/02/06 08:07:34;;;;;;;4.00;1.45;;;12.60;12.80;;;;;;5026666;28;20065;-77
2024/02/06 08:10:03;;;;;;;3.60;1.48;;;12.60;12.00;;;;;;5009341;28;20068;-77
2024/02/06 08:12:32;;;;;;;3.45;1.20;;;12.60;11.00;;;;;;5043822;28;20624;-77
2024/02/06 08:15:01;;;;;;;3.50;1.50;;;12.60;12.40;;;;;;5043794;28;20130;-77
2024/02/06 08:17:28;;;;;;;4.30;1.48;;;12.60;14.00;;;;;;5026964;28;20045;-77
2024/02/06 08:19:55;;;;;;;5.03;2.17;;;12.60;13.60;;;;;;5043976;28;20048;-77
2024/02/06 08:22:23;;;;;;;3.63;1.42;;;12.40;32.20;;;;;;5024551;28;20060;-80
2024/02/06 08:24:50;;;;;;;3.97;1.27;;;12.30;39.70;;;;;;5042620;28;20209;-78
2024/02/06 08:27:17;;;;;;;3.65;1.50;;;12.20;43.80;;;;;;5043597;28;20598;-79
2024/02/06 08:29:44;;;;;;;5.20;2.20;;;12.20;36.40;;;;;;5043795;28;20486;-79
2024/02/06 08:32:11;;;;;;;3.08;1.13;;;12.30;33.40;;;;;;5043595;28;20059;-79
2024/02/06 08:34:38;;;;;;;3.45;1.30;;;12.30;33.70;;;;;;5043708;28;20126;-78
2024/02/06 08:37:05;;;;;;;2.22;1.23;;;12.40;31.80;;;;;;5043869;28;20084;-78
2024/02/06 08:39:34;;;;;;;5.05;1.80;;;12.40;28.70;;;;;;5026087;28;20048;-78
2024/02/06 08:42:02;;;;;;;4.30;1.33;;;12.40;22.30;;;;;;5044252;28;20045;-78
2024/02/06 08:44:30;;;;;;;4.05;1.40;;;12.50;26.90;;;;;;5040766;28;20094;-78
2024/02/06 08:46:57;;;;;;;4.00;1.77;;;12.50;24.10;;;;;;5041184;28;20071;-78
2024/02/06 08:49:24;;;;;;;3.03;1.42;;;12.50;22.80;;;;;;5043445;28;20056;-78
2024/02/06 08:51:52;;;;;;;2.28;1.10;;;12.50;22.80;;;;;;5025641;28;20122;-78
2024/02/06 08:54:22;;;;;;;2.38;1.10;;;12.60;18.50;;;;;;5044046;28;20106;-77
2024/02/06 08:56:49;;;;;;;5.65;1.65;;;12.60;21.70;;;;;;5041285;28;20897;-77
2024/02/06 08:59:16;;;;;;;4.82;1.73;;;12.60;12.70;;;;;;5043747;28;20506;-77
2024/02/06 09:01:43;;;;;;;4.65;1.10;;;12.50;14.80;;;;;;5026481;28;20068;-78
2024/02/06 09:04:10;;;;;;;3.72;1.88;;;12.60;15.80;;;;;;5023869;28;20420;-77
2024/02/06 09:06:37;;;;;;;3.38;1.52;;;12.60;23.90;;;;;;5020008;28;20106;-78
2024/02/06 09:09:04;;;;;;;3.67;1.30;;;12.60;12.40;;;;;;5017948;28;20147;-78
2024/02/06 09:11:32;;;;;;;1.20;0.70;;;12.70;14.00;;;;;;5035555;28;20156;-77
2024/02/06 09:13:59;;;;;;;4.40;1.23;;;12.70;12.60;;;;;;5019935;28;20063;-78
2024/02/06 09:16:26;;;;;;;3.05;1.13;;;12.70;9.80;;;;;;5020299;28;20045;-79
2024/02/06 09:18:57;;;;;;;2.72;1.25;;;12.80;7.60;;;;;;5002724;28;20067;-79
2024/02/06 09:21:25;;;;;;;2.38;1.20;;;12.80;2.70;;;;;;5019458;28;20053;-78
2024/02/06 09:23:52;;;;;;;4.13;1.38;;;12.80;5.90;;;;;;5018160;28;20049;-78
2024/02/06 09:26:19;;;;;;;5.15;1.42;;;12.90;9.20;;;;;;5019054;28;20128;-78
2024/02/06 09:28:46;;;;;;;5.38;1.70;;;12.90;5.80;;;;;;5034172;28;20044;-78
2024/02/06 09:31:13;;;;;;;4.93;1.70;;;13.00;3.70;;;;;;5018905;28;20483;-78
2024/02/06 09:33:40;;;;;;;3.58;1.35;;;13.00;3.60;;;;;;5002046;28;20419;-79
2024/02/06 09:36:07;;;;;;;5.47;1.60;;;13.00;1.00;;;;;;5019873;28;20407;-78
2024/02/06 09:38:34;;;;;;;4.07;2.05;;;13.10;4.80;;;;;;5007231;28;20053;-78
2024/02/06 09:41:01;;;;;;;4.00;1.40;;;13.10;1.00;;;;;;4986930;28;20205;-77
2024/02/06 09:43:28;;;;;;;4.30;1.35;;;13.10;1.00;;;;;;5006497;28;20045;-78
2024/02/06 09:45:55;;;;;;;3.60;1.35;;;13.10;1.00;;;;;;5011383;28;20110;-78
2024/02/06 09:48:24;;;;;;;3.33;1.40;;;13.10;1.00;;;;;;5012663;28;20049;-78
2024/02/06 09:50:52;;;;;;;4.80;2.28;;;13.20;1.00;;;;;;5013186;28;20052;-79
2024/02/06 09:53:20;;;;;;;6.10;2.22;;;13.20;1.00;;;;;;5011137;28;20376;-79
2024/02/06 09:55:47;;;;;;;3.90;1.95;;;13.30;1.00;;;;;;5012103;28;20053;-77
2024/02/06 09:58:14;;;;;;;4.63;1.20;;;13.30;1.00;;;;;;5012363;28;20049;-78
2024/02/06 10:00:42;;;;;;;7.60;2.30;;;13.40;1.00;;;;;;5009870;28;20064;-78
2024/02/06 10:03:30;;;;;;;8.05;1.60;;;13.40;1.00;;;;;;5025161;28;20427;-78
2024/02/06 10:06:00;;;;;;;8.85;2.15;;;13.40;1.00;;;;;;5028391;28;20136;-78
2024/02/06 10:08:27;;;;;;;3.97;1.48;;;13.40;1.00;;;;;;5027161;28;20084;-78
2024/02/06 10:10:54;;;;;;;4.60;1.75;;;13.40;1.00;;;;;;5012425;28;20361;-78
2024/02/06 10:13:24;;;;;;;4.65;1.75;;;13.50;1.00;;;;;;5042606;28;20045;-78
2024/02/06 10:15:51;;;;;;;5.97;1.75;;;13.40;1.00;;;;;;5009194;28;20134;-78
2024/02/06 10:18:18;;;;;;;6.30;1.90;;;13.50;1.00;;;;;;5027010;28;20493;-78
2024/02/06 10:20:48;;;;;;;6.00;2.03;;;13.50;1.00;;;;;;5012467;28;20059;-78
2024/02/06 10:23:15;;;;;;;4.53;1.92;;;13.60;1.00;;;;;;4994061;28;20049;-78
2024/02/06 10:25:43;;;;;;;4.80;1.67;;;13.60;1.00;;;;;;5008515;28;20052;-77
2024/02/06 10:28:23;;;;;;;5.63;1.58;;;13.60;1.00;;;;;;5008797;28;20411;-77
2024/02/06 10:30:51;;;;;;;6.00;1.83;;;13.70;1.00;;;;;;5026031;28;20048;-77
2024/02/06 10:33:18;;;;;;;5.68;1.88;;;13.70;1.00;;;;;;4992542;28;20109;-76
2024/02/06 10:35:46;;;;;;;5.57;2.00;;;13.70;1.00;;;;;;5015978;28;20079;-77
2024/02/06 10:38:16;;;;;;;5.85;2.50;;;13.80;1.00;;;;;;5032100;28;20068;-77
2024/02/06 10:40:44;;;;;;;4.85;2.00;;;13.90;1.00;;;;;;4994565;28;20044;-77
2024/02/06 10:43:13;;;;;;;7.75;2.72;;;13.90;1.00;;;;;;5035146;28;20134;-77
2024/02/06 10:46:00;;;;;;;7.55;2.10;;;13.90;1.00;;;;;;5038418;28;20441;-77
2024/02/06 10:48:27;;;;;;;7.22;2.25;;;13.90;1.00;;;;;;5003369;28;20049;-78
2024/02/06 10:50:59;;;;;;;7.03;2.17;;;13.90;1.00;;;;;;5025118;28;20053;-78
2024/02/06 10:53:27;;;;;;;5.97;2.33;;;13.90;1.00;;;;;;4994473;28;20052;-78
2024/02/06 10:56:05;;;;;;;7.30;2.20;;;14.00;1.00;;;;;;5011781;28;20060;-78
2024/02/06 10:58:42;;;;;;;6.90;1.88;;;14.00;1.00;;;;;;5009423;28;20490;-78
2024/02/06 11:01:14;;;;;;;6.78;2.80;;;14.00;1.00;;;;;;5009056;28;20057;-78
2024/02/06 11:03:52;;;;;;;6.82;2.42;;;13.90;1.00;;;;;;5008407;28;20053;-78
2024/02/06 11:06:27;;;;;;;3.90;1.65;;;14.00;1.00;;;;;;5027977;28;20486;-78
2024/02/06 11:08:58;;;;;;;6.43;2.47;;;14.00;1.00;;;;;;5044242;28;20063;-77
2024/02/06 11:11:25;;;;;;;6.70;1.95;;;14.00;1.00;;;;;;5012315;28;20049;-78
2024/02/06 11:13:52;;;;;;;7.15;2.40;;;14.00;1.00;;;;;;5011027;28;20574;-78
2024/02/06 11:16:20;;;;;;;8.00;3.03;;;14.10;1.00;;;;;;5011231;28;20120;-77
2024/02/06 11:19:07;;;;;;;4.22;1.95;;;14.10;1.00;;;;;;5011904;28;20206;-77
2024/02/06 11:21:38;;;;;;;5.57;1.95;;;14.10;1.00;;;;;;5044973;28;20128;-78
2024/02/06 11:24:06;;;;;;;5.00;2.13;;;14.20;1.00;;;;;;5007879;28;20504;-78
2024/02/06 11:26:33;;;;;;;6.97;2.40;;;14.20;1.00;;;;;;5008012;28;20716;-78
2024/02/06 11:29:06;;;;;;;4.78;1.90;;;14.20;1.00;;;;;;5009268;28;20128;-77
2024/02/06 11:31:36;;;;;;;7.55;2.42;;;14.30;1.00;;;;;;5013123;28;20136;-78
2024/02/06 11:34:20;;;;;;;4.50;2.00;;;14.40;1.00;;;;;;5011144;28;20197;-78
2024/02/06 11:36:47;;;;;;;4.57;1.90;;;14.50;1.00;;;;;;5040404;28;20068;-78
2024/02/06 11:39:17;;;;;;;5.53;1.98;;;14.60;1.00;;;;;;5007601;28;20116;-78
2024/02/06 11:41:49;;;;;;;3.65;1.98;;;14.50;1.00;;;;;;5012634;28;20067;-77
2024/02/06 11:44:22;;;;;;;11.88;3.05;;;14.50;1.00;;;;;;5010801;28;20056;-78
2024/02/06 11:46:50;;;;;;;7.35;2.60;;;14.30;1.00;;;;;;5011472;28;20438;-78
2024/02/06 11:49:23;;;;;;;4.63;2.45;;;14.40;1.00;;;;;;5010861;28;20138;-78
2024/02/06 11:51:52;;;;;;;7.05;2.20;;;14.30;1.00;;;;;;5009203;28;20071;-78
2024/02/06 11:54:20;;;;;;;6.55;2.72;;;14.30;1.00;;;;;;5008513;28;20080;-77
2024/02/06 11:56:47;;;;;;;9.50;2.70;;;14.20;1.00;;;;;;5007114;28;20052;-78
2024/02/06 11:59:16;;;;;;;10.27;3.53;;;14.10;1.00;;;;;;4999691;28;20055;-78
2024/02/06 12:01:43;;;;;;;8.13;3.22;;;14.10;1.00;;;;;;5011492;28;20114;-79
2024/02/06 12:04:11;;;;;;;5.63;1.65;;;14.10;1.00;;;;;;5000664;28;20048;-78
2024/02/06 12:06:38;;;;;;;5.20;2.38;;;14.20;1.00;;;;;;4985362;28;20085;-78
2024/02/06 12:09:08;;;;;;;7.65;2.25;;;14.30;1.00;;;;;;5015964;28;20049;-76
2024/02/06 12:11:41;;;;;;;5.70;1.85;;;14.50;1.00;;;;;;5016416;28;20049;-78
2024/02/06 12:14:10;;;;;;;6.18;2.17;;;14.50;1.00;;;;;;5018268;28;20049;-77
2024/02/06 12:16:38;;;;;;;6.45;2.03;;;14.50;1.00;;;;;;5019347;28;20049;-78
2024/02/06 12:19:05;;;;;;;5.97;2.13;;;14.50;1.00;;;;;;5019180;28;20519;-78
2024/02/06 12:21:34;;;;;;;5.60;2.00;;;14.50;1.00;;;;;;5003569;28;20053;-77
2024/02/06 12:24:05;;;;;;;4.45;1.65;;;14.60;1.00;;;;;;5018747;28;20758;-77
2024/02/06 12:26:32;;;;;;;7.88;2.42;;;14.70;1.00;;;;;;5005150;28;20052;-79
2024/02/06 12:29:03;;;;;;;5.57;2.53;;;14.60;1.00;;;;;;5012614;28;20045;-78
2024/02/06 12:31:33;;;;;;;6.15;2.15;;;14.60;1.00;;;;;;5046834;28;20061;-78
2024/02/06 12:34:01;;;;;;;4.85;2.05;;;14.70;1.00;;;;;;5037072;28;20167;-77
2024/02/06 12:36:28;;;;;;;7.85;2.72;;;14.80;1.00;;;;;;5019831;28;20078;-78
2024/02/06 12:38:55;;;;;;;6.60;2.08;;;14.70;1.00;;;;;;5015413;28;20064;-77
2024/02/06 12:41:25;;;;;;;9.38;2.58;;;14.70;1.00;;;;;;5007947;28;20063;-78
2024/02/06 12:43:52;;;;;;;6.10;2.38;;;14.80;1.00;;;;;;5017799;28;20051;-76
2024/02/06 12:46:22;;;;;;;6.07;1.98;;;14.80;1.00;;;;;;5036238;28;20060;-77
2024/02/06 12:48:49;;;;;;;4.53;2.15;;;14.80;1.00;;;;;;5016708;28;20049;-77
2024/02/06 12:51:17;;;;;;;6.15;2.05;;;14.70;1.00;;;;;;5018704;28;20053;-77
2024/02/06 12:53:44;;;;;;;5.30;2.42;;;14.60;1.00;;;;;;5017486;28;20519;-77